Time;durP1;ratioP1;P1;durP2;ratioP2;P2;SDS_P1;SDS_P2;PMS_P1;PMS_P2;Temp;Humidity;BMP_temperature;BMP_pressure;BME280_temperature;BME280_humidity;BME280_pressure;Samples;Min_cycle;Max_cycle;Signal;HPM_P1;HPM_P2
2022/03/25 00:00:10;;;;;;;36.13;21.37;;;;;;;6.30;34.25;100551.47;1743922;82;21654;-55
2022/03/25 00:02:43;;;;;;;37.90;24.60;;;;;;;5.29;35.50;100554.49;1743060;80;21054;-56
2022/03/25 00:05:11;;;;;;;36.53;22.52;;;;;;;5.34;36.06;100553.58;1743955;82;21199;-55
2022/03/25 00:07:38;;;;;;;42.40;26.23;;;;;;;5.25;36.61;100555.73;1742541;81;21559;-59
2022/03/25 00:10:07;;;;;;;45.08;28.42;;;;;;;5.34;36.67;100553.58;1745375;80;22076;-56
2022/03/25 00:12:35;;;;;;;45.08;27.15;;;;;;;4.03;38.02;100552.02;1742267;81;21019;-58
2022/03/25 00:15:04;;;;;;;51.83;28.55;;;;;;;3.50;39.55;100553.58;1744447;80;21559;-55
2022/03/25 00:17:32;;;;;;;43.68;27.25;;;;;;;3.37;40.45;100556.34;1741604;80;21275;-58
2022/03/25 00:19:59;;;;;;;40.30;24.25;;;;;;;4.65;39.52;100549.52;1744114;81;20994;-56
2022/03/25 00:22:27;;;;;;;40.35;25.45;;;;;;;5.66;38.16;100545.91;1742989;82;21086;-59
2022/03/25 00:24:54;;;;;;;36.55;23.87;;;;;;;4.45;38.44;100556.47;1731093;81;21129;-54
2022/03/25 00:27:23;;;;;;;40.23;24.70;;;;;;;4.49;39.49;100555.24;1743569;80;21550;-56
2022/03/25 00:29:50;;;;;;;40.40;26.57;;;;;;;3.81;40.53;100555.16;1743468;82;21295;-55
2022/03/25 00:32:20;;;;;;;41.65;24.52;;;;;;;3.51;41.14;100559.06;1744433;80;20993;-59
2022/03/25 00:34:47;;;;;;;39.42;24.25;;;;;;;3.40;41.35;100562.54;1742194;81;20941;-56
2022/03/25 00:37:14;;;;;;;43.25;26.17;;;;;;;3.39;41.41;100555.77;1743808;80;22282;-59
2022/03/25 00:39:41;;;;;;;43.35;25.08;;;;;;;3.28;41.48;100551.50;1742263;81;21560;-56
2022/03/25 00:42:13;;;;;;;39.73;25.62;;;;;;;3.22;41.65;100561.05;1744758;82;21256;-56
2022/03/25 00:44:41;;;;;;;42.15;25.52;;;;;;;3.13;41.97;100556.17;1742604;82;20951;-57
2022/03/25 00:47:09;;;;;;;49.93;26.05;;;;;;;3.22;42.02;100555.06;1743716;81;21042;-57
2022/03/25 00:49:38;;;;;;;44.67;26.20;;;;;;;3.15;42.20;100554.30;1742392;81;21464;-55
2022/03/25 00:52:07;;;;;;;38.85;24.72;;;;;;;2.99;42.72;100550.53;1743737;80;21125;-57
2022/03/25 00:54:34;;;;;;;41.08;24.63;;;;;;;2.84;42.97;100557.31;1742602;81;21236;-55
2022/03/25 00:57:02;;;;;;;37.98;23.42;;;;;;;2.85;43.22;100558.13;1744021;82;21125;-55
2022/03/25 00:59:30;;;;;;;29.95;21.05;;;;;;;2.85;43.34;100551.69;1742575;81;20903;-56
2022/03/25 01:02:00;;;;;;;33.13;20.82;;;;;;;2.93;43.65;100551.86;1745392;81;21855;-55
2022/03/25 01:04:29;;;;;;;32.80;19.45;;;;;;;3.01;43.70;100548.19;1742118;82;21085;-56
2022/03/25 01:06:58;;;;;;;37.42;21.33;;;;;;;3.09;43.44;100546.26;1734041;82;21010;-56
2022/03/25 01:09:25;;;;;;;36.68;21.85;;;;;;;3.04;43.36;100549.22;1742001;82;20963;-56
2022/03/25 01:11:54;;;;;;;33.73;20.90;;;;;;;3.08;43.36;100545.92;1743749;82;21115;-55
2022/03/25 01:14:22;;;;;;;34.20;21.52;;;;;;;3.08;43.28;100557.04;1743281;80;20955;-57
2022/03/25 01:16:49;;;;;;;32.30;20.82;;;;;;;3.17;43.05;100554.97;1742835;82;21080;-55
2022/03/25 01:19:16;;;;;;;33.53;22.10;;;;;;;3.22;42.81;100556.34;1744422;80;21182;-58
2022/03/25 01:21:45;;;;;;;38.15;21.57;;;;;;;3.32;42.69;100553.35;1742462;81;20945;-54
2022/03/25 01:24:14;;;;;;;33.98;20.68;;;;;;;3.23;42.79;100553.66;1744088;81;20987;-56
2022/03/25 01:26:43;;;;;;;39.55;22.90;;;;;;;3.35;42.36;100553.10;1742658;80;21091;-56
2022/03/25 01:29:10;;;;;;;35.50;22.40;;;;;;;3.11;42.88;100565.80;1745275;80;21517;-60
2022/03/25 01:31:40;;;;;;;50.15;29.63;;;;;;;3.02;43.24;100561.39;1742467;80;21572;-56
2022/03/25 01:34:08;;;;;;;79.60;44.13;;;;;;;3.04;43.33;100567.25;1745396;81;20990;-57
2022/03/25 01:36:35;;;;;;;72.35;40.10;;;;;;;3.04;43.36;100562.09;1741485;82;21003;-59
2022/03/25 01:39:04;;;;;;;63.23;36.10;;;;;;;3.02;43.37;100572.98;1743748;81;20991;-56
2022/03/25 01:41:31;;;;;;;54.15;33.00;;;;;;;2.92;43.57;100572.94;1742276;80;21010;-57
2022/03/25 01:44:00;;;;;;;51.00;30.40;;;;;;;2.90;43.73;100574.00;1744181;80;22450;-54
2022/03/25 01:46:27;;;;;;;50.43;29.87;;;;;;;2.93;43.82;100570.70;1721621;82;21053;-54
2022/03/25 01:48:54;;;;;;;47.00;28.95;;;;;;;2.93;43.84;100576.33;1733549;80;21598;-54
2022/03/25 01:51:32;;;;;;;53.15;30.75;;;;;;;2.83;44.04;100578.01;1743292;80;21023;-57
2022/03/25 01:54:25;;;;;;;50.52;29.07;;;;;;;2.76;44.20;100575.11;1723968;82;21044;-57
2022/03/25 01:57:02;;;;;;;53.58;33.53;;;;;;;3.77;42.83;100575.70;1734813;80;21156;-58
2022/03/25 01:59:30;;;;;;;51.10;30.05;;;;;;;2.71;44.45;100581.11;1741272;81;21061;-55
2022/03/25 02:01:58;;;;;;;56.18;30.82;;;;;;;2.51;45.07;100584.02;1744628;81;21120;-55
2022/03/25 02:04:25;;;;;;;54.15;30.85;;;;;;;3.01;43.78;100576.52;1743827;82;20971;-55
2022/03/25 02:06:53;;;;;;;56.35;32.15;;;;;;;2.85;44.05;100576.95;1743540;82;20991;-57
2022/03/25 02:09:22;;;;;;;52.67;30.88;;;;;;;3.51;44.26;100576.63;1743763;82;21252;-58
2022/03/25 02:11:52;;;;;;;48.40;28.07;;;;;;;3.85;43.43;100571.19;1743399;82;20956;-54
2022/03/25 02:14:20;;;;;;;45.60;27.55;;;;;;;4.00;42.92;100567.77;1722904;81;20935;-55
2022/03/25 02:16:49;;;;;;;44.00;25.65;;;;;;;3.98;42.89;100572.22;1744347;80;20990;-58
2022/03/25 02:19:18;;;;;;;40.78;24.95;;;;;;;3.83;43.13;100579.55;1743956;81;21006;-58
2022/03/25 02:21:48;;;;;;;46.37;26.40;;;;;;;3.51;42.95;100580.97;1744455;81;25221;-55
2022/03/25 02:24:17;;;;;;;46.30;28.23;;;;;;;2.48;45.40;100582.97;1744633;80;21098;-55
2022/03/25 02:26:44;;;;;;;45.98;25.25;;;;;;;2.38;45.98;100581.58;1721677;82;21036;-54
2022/03/25 02:29:16;;;;;;;42.73;26.17;;;;;;;3.41;44.47;100586.09;1743151;81;21508;-56
2022/03/25 02:31:43;;;;;;;40.15;24.05;;;;;;;3.06;44.90;100594.97;1743461;81;21114;-55
2022/03/25 02:34:11;;;;;;;44.58;26.48;;;;;;;2.46;45.93;100590.45;1744324;82;21364;-54
2022/03/25 02:36:41;;;;;;;36.73;23.30;;;;;;;2.49;46.09;100591.50;1742937;80;21018;-55
2022/03/25 02:39:09;;;;;;;38.70;24.00;;;;;;;2.52;46.00;100591.26;1743685;80;20999;-55
2022/03/25 02:41:38;;;;;;;40.60;23.45;;;;;;;2.53;45.88;100585.98;1744003;82;21004;-55
2022/03/25 02:44:07;;;;;;;36.15;24.02;;;;;;;2.62;45.71;100594.27;1744818;80;20974;-55
2022/03/25 02:46:36;;;;;;;44.95;21.93;;;;;;;2.62;45.68;100596.02;1742482;81;21131;-58
2022/03/25 02:49:04;;;;;;;39.35;23.35;;;;;;;2.63;45.36;100598.46;1744550;82;21089;-56
2022/03/25 02:51:32;;;;;;;42.83;25.70;;;;;;;2.63;45.36;100598.46;1742566;80;21505;-55
2022/03/25 02:54:00;;;;;;;48.52;28.20;;;;;;;3.42;44.08;100599.31;1744863;82;21046;-55
2022/03/25 02:56:28;;;;;;;56.05;30.57;;;;;;;3.64;43.21;100592.70;1742412;82;20935;-56
2022/03/25 02:58:56;;;;;;;47.90;28.30;;;;;;;3.61;43.07;100594.25;1720159;81;22260;-56
2022/03/25 03:01:23;;;;;;;47.00;26.25;;;;;;;3.58;43.15;100595.79;1744906;80;21066;-55
2022/03/25 03:03:51;;;;;;;48.58;29.02;;;;;;;3.58;43.15;100595.79;1744553;81;21033;-55
2022/03/25 03:06:18;;;;;;;44.40;29.02;;;;;;;3.61;42.77;100592.95;1744950;80;20903;-57
2022/03/25 03:08:45;;;;;;;46.45;28.62;;;;;;;3.48;42.74;100593.63;1742254;80;21099;-55
2022/03/25 03:11:14;;;;;;;48.20;29.12;;;;;;;3.21;43.04;100596.75;1743798;82;21517;-55
2022/03/25 03:13:41;;;;;;;53.48;30.02;;;;;;;3.22;43.15;100602.27;1743242;81;20955;-55
2022/03/25 03:16:09;;;;;;;49.73;29.90;;;;;;;3.13;43.40;100602.54;1744250;80;21470;-59
2022/03/25 03:18:36;;;;;;;54.70;30.48;;;;;;;3.25;43.37;100604.57;1742773;82;22458;-56
2022/03/25 03:21:05;;;;;;;52.48;31.17;;;;;;;3.09;43.70;100610.17;1744834;81;21014;-55
2022/03/25 03:23:32;;;;;;;48.60;30.15;;;;;;;3.07;44.01;100613.80;1741991;80;21158;-56
2022/03/25 03:25:59;;;;;;;53.58;29.87;;;;;;;3.02;44.20;100612.09;1743988;81;20939;-58
2022/03/25 03:28:28;;;;;;;46.30;29.23;;;;;;;1.95;45.58;100618.86;1743872;81;21056;-59
2022/03/25 03:30:55;;;;;;;51.05;30.37;;;;;;;1.77;47.13;100619.80;1720367;81;21061;-56
2022/03/25 03:33:23;;;;;;;46.10;27.98;;;;;;;1.60;48.13;100620.28;1743974;82;21461;-55
2022/03/25 03:35:50;;;;;;;50.40;30.23;;;;;;;1.81;48.62;100626.81;1743563;82;22267;-55
2022/03/25 03:38:19;;;;;;;48.90;30.62;;;;;;;2.24;49.09;100619.17;1744554;81;20984;-59
2022/03/25 03:40:46;;;;;;;48.73;30.25;;;;;;;2.24;49.09;100619.17;1741433;81;21127;-55
2022/03/25 03:43:13;;;;;;;49.08;29.77;;;;;;;2.57;49.41;100622.10;1744093;82;21105;-56
2022/03/25 03:45:41;;;;;;;46.85;29.52;;;;;;;2.90;49.44;100622.45;1742132;82;21598;-55
2022/03/25 03:48:09;;;;;;;48.13;28.17;;;;;;;4.73;46.80;100615.98;1744331;80;22215;-55
2022/03/25 03:50:38;;;;;;;42.27;26.97;;;;;;;5.33;45.41;100622.56;1742250;80;21010;-58
2022/03/25 03:53:05;;;;;;;46.35;28.40;;;;;;;5.83;44.77;100622.28;1744229;81;22253;-56
2022/03/25 03:55:33;;;;;;;48.58;28.38;;;;;;;6.38;44.06;100625.33;1743413;81;21516;-57
2022/03/25 03:58:22;;;;;;;48.42;30.80;;;;;;;7.03;43.13;100630.27;1743085;81;20963;-57
2022/03/25 04:00:48;;;;;;;46.73;28.07;;;;;;;7.67;42.06;100624.34;1748119;80;21548;-55
2022/03/25 04:03:16;;;;;;;41.20;26.05;;;;;;;8.45;40.95;100617.66;1765823;81;21138;-55
2022/03/25 04:05:45;;;;;;;36.28;24.57;;;;;;;9.24;39.70;100617.47;1767486;80;21078;-55
2022/03/25 04:08:12;;;;;;;36.20;25.32;;;;;;;9.10;39.30;100618.97;1771279;80;21522;-57
2022/03/25 04:10:41;;;;;;;40.60;27.27;;;;;;;9.34;39.23;100624.61;1770665;80;21475;-56
2022/03/25 04:13:09;;;;;;;37.28;26.57;;;;;;;9.99;38.12;100620.97;1771893;80;22303;-55
2022/03/25 04:15:36;;;;;;;37.88;25.97;;;;;;;10.58;36.93;100617.91;1772435;80;21061;-55
2022/03/25 04:18:04;;;;;;;35.45;24.67;;;;;;;11.08;36.02;100617.32;1773004;80;21526;-57
2022/03/25 04:20:33;;;;;;;37.88;28.32;;;;;;;11.65;35.13;100618.53;1771329;80;20996;-59
2022/03/25 04:23:00;;;;;;;37.88;27.20;;;;;;;12.23;34.42;100616.83;1760699;80;21154;-56
2022/03/25 04:25:28;;;;;;;36.90;27.10;;;;;;;12.78;33.68;100610.13;1760818;80;21186;-57
2022/03/25 04:27:58;;;;;;;37.75;27.55;;;;;;;11.81;34.68;100615.72;1747231;80;21499;-55
2022/03/25 04:30:30;;;;;;;35.70;28.73;;;;;;;12.17;34.20;100617.09;1765392;80;21630;-59
2022/03/25 04:32:59;;;;;;;38.67;28.00;;;;;;;12.59;33.47;100616.00;1771088;80;22084;-55
2022/03/25 04:35:28;;;;;;;41.30;29.87;;;;;;;12.99;32.76;100608.47;1770898;80;21287;-55
2022/03/25 04:37:54;;;;;;;39.57;30.07;;;;;;;13.34;31.85;100611.48;1760606;80;21268;-55
2022/03/25 04:40:23;;;;;;;37.60;30.03;;;;;;;13.55;31.28;100613.70;1769888;80;21270;-56
2022/03/25 04:42:51;;;;;;;42.23;32.33;;;;;;;13.65;30.79;100618.59;1771337;80;21456;-55
2022/03/25 04:45:19;;;;;;;37.80;29.87;;;;;;;14.75;29.89;100613.57;1772586;80;21435;-56
2022/03/25 04:47:48;;;;;;;36.17;28.30;;;;;;;14.75;29.89;100613.57;1771400;80;21636;-55
2022/03/25 04:50:16;;;;;;;37.53;29.70;;;;;;;15.71;28.57;100611.72;1771337;80;21748;-59
2022/03/25 04:52:43;;;;;;;45.33;35.53;;;;;;;16.79;27.03;100595.94;1770810;80;21698;-55
2022/03/25 04:55:15;;;;;;;49.80;37.83;;;;;;;16.79;27.03;100595.94;1771257;80;21535;-56
2022/03/25 04:57:40;;;;;;;51.27;39.10;;;;;;;17.09;26.31;100599.23;1770068;80;21518;-56
2022/03/25 05:00:29;;;;;;;62.73;43.10;;;;;;;17.04;25.58;100597.22;1770089;79;20947;-58
2022/03/25 05:02:56;;;;;;;57.97;44.70;;;;;;;16.85;25.30;100600.84;1708695;82;21295;-56
2022/03/25 05:05:24;;;;;;;56.13;44.87;;;;;;;16.33;25.56;100611.53;1734307;82;21070;-57
2022/03/25 05:07:52;;;;;;;52.60;42.27;;;;;;;15.93;25.75;100617.50;1739897;80;21149;-59
2022/03/25 05:10:20;;;;;;;53.17;43.07;;;;;;;15.61;26.27;100616.56;1709747;82;21034;-59
2022/03/25 05:12:51;;;;;;;56.00;42.97;;;;;;;15.64;26.25;100613.02;1740991;81;21056;-59
2022/03/25 05:15:19;;;;;;;59.00;44.90;;;;;;;15.42;26.50;100619.55;1715115;83;21242;-57
2022/03/25 05:17:51;;;;;;;56.27;43.20;;;;;;;15.00;26.72;100615.90;1736912;82;21648;-60
2022/03/25 05:20:20;;;;;;;53.98;41.73;;;;;;;14.36;27.32;100625.61;1738805;82;21850;-58
2022/03/25 05:22:49;;;;;;;59.93;43.02;;;;;;;13.73;28.00;100628.91;1739235;81;28944;-58
2022/03/25 05:25:18;;;;;;;62.13;45.97;;;;;;;12.99;28.38;100630.20;1741205;81;21025;-58
2022/03/25 05:27:54;;;;;;;68.43;47.47;;;;;;;12.29;29.50;100638.83;1737852;81;21450;-61
2022/03/25 05:30:24;;;;;;;64.63;46.70;;;;;;;11.66;30.20;100637.12;1743544;81;21246;-58
2022/03/25 05:32:51;;;;;;;77.80;50.53;;;;;;;11.31;31.09;100647.27;1730747;82;21062;-58
2022/03/25 05:35:22;;;;;;;75.63;51.50;;;;;;;11.15;31.06;100646.94;1733055;81;21194;-60
2022/03/25 05:37:51;;;;;;;74.13;48.13;;;;;;;10.89;31.41;100646.02;1732457;81;21298;-59
2022/03/25 05:40:21;;;;;;;66.95;48.35;;;;;;;10.64;31.61;100645.87;1706646;81;22526;-59
2022/03/25 05:42:49;;;;;;;73.17;48.85;;;;;;;10.30;32.18;100654.88;1735621;82;21505;-60
2022/03/25 05:45:18;;;;;;;70.65;46.13;;;;;;;10.25;32.63;100649.38;1735011;82;21668;-61
2022/03/25 05:47:46;;;;;;;65.00;43.10;;;;;;;10.29;32.86;100653.25;1741994;80;22041;-59
2022/03/25 05:50:14;;;;;;;62.40;43.45;;;;;;;10.42;32.76;100659.23;1744023;81;21087;-58
2022/03/25 05:52:42;;;;;;;72.27;45.35;;;;;;;10.31;33.10;100652.61;1730686;80;21036;-60
2022/03/25 05:55:10;;;;;;;68.80;44.55;;;;;;;10.36;33.48;100655.50;1728872;81;20890;-60
2022/03/25 05:57:38;;;;;;;58.85;40.85;;;;;;;10.40;33.43;100656.78;1735042;81;21047;-60
2022/03/25 06:00:08;;;;;;;58.73;40.63;;;;;;;10.40;33.40;100659.38;1734889;82;21052;-59
2022/03/25 06:02:42;;;;;;;63.90;42.55;;;;;;;10.44;33.56;100665.06;1702980;82;21042;-57
2022/03/25 06:05:10;;;;;;;62.55;41.68;;;;;;;10.61;33.30;100666.59;1701446;83;21298;-60
2022/03/25 06:07:39;;;;;;;63.17;43.05;;;;;;;10.63;33.67;100671.13;1701899;83;20989;-57
2022/03/25 06:10:07;;;;;;;70.30;47.73;;;;;;;10.85;33.67;100669.52;1702999;83;21594;-58
2022/03/25 06:12:36;;;;;;;72.03;46.85;;;;;;;10.91;33.49;100670.60;1705281;84;21064;-58
2022/03/25 06:15:06;;;;;;;73.10;47.67;;;;;;;11.42;33.09;100670.83;1702452;84;21045;-60
2022/03/25 06:17:43;;;;;;;69.00;44.93;;;;;;;11.63;32.34;100669.64;1703232;83;21115;-58
2022/03/25 06:20:12;;;;;;;78.55;47.17;;;;;;;11.56;32.56;100671.84;1678406;84;20964;-58
2022/03/25 06:22:41;;;;;;;69.35;44.25;;;;;;;12.01;32.29;100677.87;1707346;83;20952;-60
2022/03/25 06:25:11;;;;;;;73.33;45.67;;;;;;;12.29;31.57;100673.61;1703618;83;21032;-61
2022/03/25 06:27:52;;;;;;;64.87;40.93;;;;;;;12.85;30.86;100664.63;1703795;82;21109;-59
2022/03/25 06:30:21;;;;;;;70.35;45.25;;;;;;;13.25;29.72;100667.59;1689524;83;21331;-59
2022/03/25 06:32:50;;;;;;;66.02;44.65;;;;;;;13.96;29.07;100665.30;1698834;82;21011;-61
2022/03/25 06:35:17;;;;;;;66.93;45.53;;;;;;;14.42;28.53;100668.58;1707897;82;21119;-61
2022/03/25 06:37:44;;;;;;;77.70;52.50;;;;;;;14.60;27.93;100663.61;1696825;83;21426;-60
2022/03/25 06:40:13;;;;;;;81.50;52.73;;;;;;;15.60;26.89;100668.31;1702280;84;21272;-59
2022/03/25 06:42:42;;;;;;;69.23;47.27;;;;;;;16.03;26.46;100667.83;1704343;83;21788;-61
2022/03/25 06:45:11;;;;;;;66.50;46.70;;;;;;;16.46;26.05;100662.75;1705426;82;21553;-59
2022/03/25 06:47:39;;;;;;;61.60;39.93;;;;;;;16.73;25.36;100654.19;1704940;83;21540;-59
2022/03/25 06:50:08;;;;;;;58.13;37.77;;;;;;;15.95;25.72;100675.95;1701189;83;21552;-59
2022/03/25 06:52:36;;;;;;;52.93;36.27;;;;;;;15.83;25.92;100665.77;1702786;83;21066;-60
2022/03/25 06:55:04;;;;;;;44.53;32.37;;;;;;;16.35;25.26;100666.56;1711247;82;22444;-57
2022/03/25 06:57:32;;;;;;;39.63;28.97;;;;;;;16.57;24.80;100666.53;1774716;79;21035;-59
2022/03/25 07:00:00;;;;;;;36.67;27.00;;;;;;;16.73;24.50;100668.67;1768839;80;20976;-59
2022/03/25 07:02:28;;;;;;;34.03;25.97;;;;;;;17.48;23.76;100661.26;1766930;80;21051;-61
2022/03/25 07:04:56;;;;;;;29.97;21.80;;;;;;;18.33;22.66;100666.55;1767428;80;21083;-62
2022/03/25 07:07:26;;;;;;;25.20;20.53;;;;;;;17.55;22.79;100665.16;1765033;80;22553;-60
2022/03/25 07:09:54;;;;;;;33.07;22.57;;;;;;;18.20;22.34;100658.83;1768806;80;20914;-59
2022/03/25 07:12:22;;;;;;;31.57;20.33;;;;;;;18.41;22.27;100658.83;1768769;80;20965;-62
2022/03/25 07:14:50;;;;;;;28.57;20.47;;;;;;;18.30;22.43;100665.70;1767498;80;21064;-60
2022/03/25 07:17:20;;;;;;;29.70;19.43;;;;;;;17.92;22.26;100668.11;1768680;80;20972;-59
2022/03/25 07:19:49;;;;;;;26.23;19.23;;;;;;;17.53;22.24;100668.50;1766792;80;21291;-60
2022/03/25 07:22:17;;;;;;;20.40;14.40;;;;;;;18.23;21.70;100665.78;1769014;80;20997;-59
2022/03/25 07:24:45;;;;;;;23.40;15.53;;;;;;;17.50;21.68;100672.38;1768258;80;20968;-62
2022/03/25 07:27:12;;;;;;;22.40;14.50;;;;;;;17.12;22.52;100668.09;1768106;80;21485;-59
2022/03/25 07:29:40;;;;;;;20.53;14.53;;;;;;;17.92;21.94;100665.98;1765994;80;20981;-59
2022/03/25 07:32:08;;;;;;;19.53;14.60;;;;;;;18.74;21.43;100661.54;1767346;79;21217;-60
2022/03/25 07:34:37;;;;;;;20.87;14.73;;;;;;;18.27;21.41;100670.10;1763999;79;21108;-60
2022/03/25 07:37:05;;;;;;;28.00;16.73;;;;;;;17.95;21.69;100671.59;1767307;80;21389;-59
2022/03/25 07:39:34;;;;;;;22.47;16.60;;;;;;;17.96;21.71;100669.28;1767160;80;21012;-59
2022/03/25 07:42:02;;;;;;;22.17;16.37;;;;;;;17.91;21.94;100673.59;1767669;80;21039;-58
2022/03/25 07:44:31;;;;;;;25.30;17.63;;;;;;;17.87;21.64;100676.38;1766959;80;21249;-60
2022/03/25 07:46:58;;;;;;;22.27;16.33;;;;;;;17.72;21.63;100667.48;1769467;79;21130;-59
2022/03/25 07:49:26;;;;;;;23.17;16.70;;;;;;;18.00;21.77;100668.32;1772516;79;21053;-59
2022/03/25 07:51:53;;;;;;;24.47;18.30;;;;;;;19.11;20.86;100657.68;1764064;79;21107;-60
2022/03/25 07:54:20;;;;;;;26.53;19.07;;;;;;;19.30;20.39;100660.21;1767935;80;21072;-58
2022/03/25 07:56:47;;;;;;;23.57;17.77;;;;;;;19.19;20.78;100657.33;1766271;80;21873;-58
2022/03/25 07:59:15;;;;;;;24.03;16.60;;;;;;;18.95;20.97;100659.17;1768439;80;20989;-59
2022/03/25 08:01:43;;;;;;;24.43;16.07;;;;;;;19.37;20.59;100660.91;1770043;78;21034;-59
2022/03/25 08:04:10;;;;;;;21.00;13.07;;;;;;;19.90;20.10;100669.98;1778355;79;20970;-62
2022/03/25 08:06:37;;;;;;;10.90;7.67;;;;;;;19.91;19.80;100656.23;1766953;80;21072;-58
2022/03/25 08:09:05;;;;;;;13.20;9.23;;;;;;;19.93;19.83;100660.78;1767745;80;21226;-59
2022/03/25 08:11:34;;;;;;;14.10;7.63;;;;;;;19.79;19.65;100658.11;1768232;80;21535;-59
2022/03/25 08:14:03;;;;;;;9.03;6.33;;;;;;;19.52;19.46;100656.47;1767812;80;21534;-61
2022/03/25 08:16:33;;;;;;;8.90;5.40;;;;;;;19.87;19.34;100651.92;1767071;80;21043;-59
2022/03/25 08:19:01;;;;;;;9.38;4.95;;;;;;;20.06;19.22;100652.55;1767659;80;21080;-59
2022/03/25 08:21:29;;;;;;;7.73;5.37;;;;;;;20.02;19.14;100656.71;1768303;80;21842;-59
2022/03/25 08:29:30;;;;;;;5.33;3.43;;;;;;;19.87;19.01;100649.80;1768520;80;21023;-59
2022/03/25 08:31:57;;;;;;;4.13;2.33;;;;;;;19.70;19.23;100655.03;1766864;80;21553;-60
2022/03/25 08:34:25;;;;;;;7.20;3.17;;;;;;;19.67;19.17;100652.84;1768335;80;21925;-60
2022/03/25 08:36:53;;;;;;;8.17;4.30;;;;;;;19.47;19.09;100647.88;1767558;79;21095;-60
2022/03/25 08:39:22;;;;;;;7.40;3.30;;;;;;;19.37;19.21;100653.77;1767685;80;21212;-60
2022/03/25 08:41:49;;;;;;;6.63;3.60;;;;;;;19.27;19.43;100654.06;1754834;80;20984;-63
2022/03/25 08:44:16;;;;;;;10.53;4.00;;;;;;;18.50;19.96;100650.90;1767333;80;21130;-60
2022/03/25 08:46:44;;;;;;;7.30;4.57;;;;;;;18.36;20.09;100652.91;1768987;80;22160;-60
2022/03/25 08:49:12;;;;;;;6.70;4.30;;;;;;;18.98;19.64;100650.48;1767756;80;21068;-62
2022/03/25 08:51:40;;;;;;;6.23;4.73;;;;;;;19.41;19.26;100646.19;1768766;80;21055;-61
2022/03/25 08:54:08;;;;;;;6.97;4.10;;;;;;;19.42;18.84;100641.97;1766767;80;21073;-60
2022/03/25 08:56:36;;;;;;;9.87;4.50;;;;;;;19.49;18.88;100641.86;1768703;80;21421;-58
2022/03/25 08:59:04;;;;;;;9.87;5.03;;;;;;;19.54;18.67;100637.19;1767458;80;21176;-59
2022/03/25 09:01:32;;;;;;;9.70;5.60;;;;;;;19.60;18.71;100641.03;1768942;80;21589;-59
2022/03/25 09:03:59;;;;;;;9.10;4.87;;;;;;;19.65;18.84;100639.04;1764995;81;21010;-62
2022/03/25 09:06:27;;;;;;;6.33;4.50;;;;;;;19.68;18.63;100638.05;1763764;81;21541;-59
2022/03/25 09:08:56;;;;;;;6.83;5.60;;;;;;;19.77;18.80;100632.39;1749496;81;20969;-59
2022/03/25 09:11:24;;;;;;;9.57;5.60;;;;;;;20.10;18.80;100635.68;1763559;80;21264;-59
2022/03/25 09:13:51;;;;;;;11.80;5.50;;;;;;;20.00;18.48;100634.98;1763486;81;21005;-62
2022/03/25 09:16:19;;;;;;;7.73;5.17;;;;;;;19.83;18.91;100625.66;1762936;80;21047;-60
2022/03/25 09:18:46;;;;;;;9.27;5.70;;;;;;;19.90;19.11;100630.81;1761593;81;21152;-60
2022/03/25 09:21:14;;;;;;;12.47;7.00;;;;;;;20.02;19.29;100639.51;1763310;81;22190;-60
2022/03/25 09:23:41;;;;;;;14.33;8.17;;;;;;;19.77;19.33;100627.10;1763706;80;21482;-63
2022/03/25 09:26:10;;;;;;;8.93;6.33;;;;;;;18.95;20.25;100637.23;1762277;81;20934;-60
2022/03/25 09:28:38;;;;;;;9.67;5.90;;;;;;;17.63;21.45;100633.22;1762936;81;21139;-61
2022/03/25 09:31:08;;;;;;;10.38;6.12;;;;;;;17.79;21.81;100636.61;1764430;81;21012;-60
2022/03/25 09:33:35;;;;;;;8.70;5.77;;;;;;;18.20;21.55;100628.48;1763524;80;21577;-60
2022/03/25 09:36:04;;;;;;;8.40;5.57;;;;;;;18.49;21.43;100622.91;1762709;80;21239;-61
2022/03/25 09:38:31;;;;;;;9.57;5.80;;;;;;;19.70;20.25;100621.97;1763230;81;21492;-60
2022/03/25 09:40:58;;;;;;;8.50;5.90;;;;;;;20.05;20.16;100625.81;1764642;81;21040;-59
2022/03/25 09:43:25;;;;;;;10.37;6.33;;;;;;;20.19;19.83;100627.63;1744623;81;20922;-59
2022/03/25 09:45:54;;;;;;;10.30;5.50;;;;;;;20.12;19.79;100622.50;1745500;81;20910;-63
2022/03/25 09:48:22;;;;;;;7.43;4.60;;;;;;;20.17;19.79;100631.05;1722047;83;21284;-60
2022/03/25 09:50:50;;;;;;;7.60;4.63;;;;;;;20.12;19.62;100625.15;1690601;84;20993;-60
2022/03/25 09:53:18;;;;;;;12.57;3.87;;;;;;;20.04;19.85;100632.15;1722879;83;21003;-58
2022/03/25 09:55:46;;;;;;;6.93;4.00;;;;;;;19.73;19.78;100625.97;1721981;83;21550;-58
2022/03/25 09:58:22;;;;;;;8.93;3.53;;;;;;;19.41;20.15;100623.71;1722093;83;21071;-60
2022/03/25 10:00:51;;;;;;;7.73;3.67;;;;;;;18.66;20.35;100629.12;1722553;83;21264;-59
2022/03/25 10:03:27;;;;;;;6.90;4.10;;;;;;;18.38;21.07;100635.03;1724815;82;21496;-62
2022/03/25 10:05:57;;;;;;;8.60;3.77;;;;;;;18.38;21.13;100628.95;1724309;82;21484;-60
2022/03/25 10:08:31;;;;;;;5.90;3.10;;;;;;;18.49;20.75;100633.46;1732267;82;21849;-59
2022/03/25 10:11:22;;;;;;;7.13;3.47;;;;;;;18.37;20.36;100628.15;1706160;82;21810;-60
2022/03/25 10:14:14;;;;;;;6.62;3.00;;;;;;;18.03;20.47;100629.60;1733513;82;21209;-61
2022/03/25 10:16:45;;;;;;;5.63;3.10;;;;;;;17.94;20.89;100633.06;1729361;82;20995;-61
2022/03/25 10:19:21;;;;;;;5.03;2.47;;;;;;;18.31;20.50;100621.64;1730751;82;21879;-59
2022/03/25 10:22:00;;;;;;;4.97;2.87;;;;;;;19.87;19.07;100608.79;1730724;82;21059;-60
2022/03/25 10:24:43;;;;;;;5.58;2.70;;;;;;;19.87;19.07;100608.79;1727889;82;21112;-60
2022/03/25 10:27:11;;;;;;;4.80;2.87;;;;;;;19.76;18.42;100614.92;1729654;82;27667;-59
2022/03/25 10:29:38;;;;;;;5.53;3.13;;;;;;;19.62;19.05;100619.17;1736141;82;21055;-60
2022/03/25 10:32:12;;;;;;;4.67;2.70;;;;;;;19.64;19.19;100613.11;1731832;82;21004;-59
2022/03/25 10:34:41;;;;;;;6.00;2.90;;;;;;;19.70;18.81;100610.06;1726859;82;21468;-60
2022/03/25 10:37:11;;;;;;;7.00;2.83;;;;;;;19.80;18.79;100613.41;1715894;82;21508;-59
2022/03/25 10:39:39;;;;;;;4.87;2.63;;;;;;;19.87;18.91;100599.02;1703049;83;21861;-60
2022/03/25 10:42:08;;;;;;;6.33;2.87;;;;;;;19.90;19.00;100597.74;1772426;79;20922;-64
2022/03/25 10:44:40;;;;;;;5.33;2.47;;;;;;;19.87;19.01;100594.24;1732185;81;22455;-64
2022/03/25 10:47:24;;;;;;;12.50;2.40;;;;;;;19.47;19.13;100604.25;1700414;83;21587;-61
2022/03/25 10:49:52;;;;;;;5.37;2.20;;;;;;;19.35;19.29;100598.99;1700031;83;21121;-60
2022/03/25 10:52:31;;;;;;;4.47;2.43;;;;;;;19.19;19.22;100591.78;1769386;80;21594;-61
2022/03/25 10:55:20;;;;;;;6.30;2.30;;;;;;;18.24;19.91;100590.86;1764314;80;21087;-61
2022/03/25 10:57:54;;;;;;;7.00;2.80;;;;;;;18.17;19.94;100584.07;1775030;80;21145;-63
2022/03/25 11:00:23;;;;;;;4.60;2.37;;;;;;;18.37;19.69;100581.96;1771711;80;22037;-60
2022/03/25 11:02:50;;;;;;;7.83;2.47;;;;;;;18.55;19.58;100582.38;1772533;80;21134;-58
2022/03/25 11:05:17;;;;;;;4.50;2.47;;;;;;;19.73;18.65;100579.16;1775851;80;21134;-60
2022/03/25 11:07:46;;;;;;;5.70;2.87;;;;;;;20.12;18.15;100581.48;1775776;80;21047;-60
2022/03/25 11:10:15;;;;;;;5.30;2.20;;;;;;;20.09;17.74;100582.48;1774522;80;21820;-59
2022/03/25 11:12:43;;;;;;;4.47;1.87;;;;;;;20.01;17.43;100573.60;1776712;80;21109;-58
2022/03/25 11:15:13;;;;;;;6.67;2.43;;;;;;;20.16;17.61;100577.31;1773754;80;21044;-60
2022/03/25 11:17:43;;;;;;;4.97;2.00;;;;;;;20.47;17.60;100576.50;1773447;80;21447;-59
2022/03/25 11:20:12;;;;;;;4.10;2.30;;;;;;;19.76;17.18;100580.02;1774189;80;21063;-59
2022/03/25 11:22:53;;;;;;;9.33;4.43;;;;;;;19.23;17.44;100581.03;1776560;80;21072;-60
2022/03/25 11:25:24;;;;;;;;;;;;;;;18.91;18.15;100576.65;1758569;80;21009;-61
2022/03/25 11:28:11;;;;;;;4.87;2.43;;;;;;;18.91;18.54;100582.73;1776295;80;20429;-60
2022/03/25 11:30:38;;;;;;;6.47;2.23;;;;;;;18.92;18.20;100576.41;1774020;80;21211;-63